createdAt,value
2023-03-08T00:03:37.524Z,34.10
2023-03-08T00:07:39.566Z,15.80
2023-03-08T00:11:41.562Z,8.85
2023-03-08T00:15:44.378Z,8.77
2023-03-08T00:19:46.421Z,32.55
2023-03-08T00:23:51.374Z,10.30
2023-03-08T00:27:53.448Z,26.42
2023-03-08T00:31:56.716Z,30.77
2023-03-08T00:36:01.171Z,24.83
2023-03-08T00:40:05.805Z,10.82
2023-03-08T00:44:10.242Z,19.52
2023-03-08T00:48:12.599Z,17.13
2023-03-08T00:52:14.395Z,10.55
2023-03-08T00:56:16.468Z,16.08
2023-03-08T01:00:18.741Z,11.98
2023-03-08T01:04:20.782Z,17.38
2023-03-08T01:08:25.007Z,11.88
2023-03-08T01:12:27.290Z,12.65
2023-03-08T01:16:31.411Z,15.07
2023-03-08T01:20:34.145Z,18.00
2023-03-08T01:24:39.658Z,21.38
2023-03-08T01:28:42.478Z,12.05
2023-03-08T01:32:44.747Z,19.88
2023-03-08T01:36:46.996Z,17.30
2023-03-08T01:40:59.671Z,16.73
2023-03-08T01:45:05.796Z,21.67
2023-03-08T01:49:17.533Z,13.52
2023-03-08T01:53:19.870Z,22.10
2023-03-08T01:57:25.980Z,14.85
2023-03-08T02:01:28.350Z,14.23
2023-03-08T02:05:33.496Z,12.13
2023-03-08T02:09:44.141Z,16.70
2023-03-08T02:13:47.349Z,16.48
2023-03-08T02:17:49.771Z,13.63
2023-03-08T02:21:51.939Z,19.90
2023-03-08T02:25:57.520Z,11.57
2023-03-08T02:29:59.448Z,12.27
2023-03-08T02:34:01.628Z,11.60
2023-03-08T02:38:03.682Z,16.08
2023-03-08T02:42:07.190Z,11.07
2023-03-08T02:46:13.821Z,10.77
2023-03-08T02:50:16.198Z,14.40
2023-03-08T02:54:18.174Z,11.63
2023-03-08T02:58:20.311Z,11.15
2023-03-08T03:02:22.271Z,15.82
2023-03-08T03:06:24.146Z,5.70
2023-03-08T03:10:30.054Z,7.78
2023-03-08T03:14:32.593Z,11.52
2023-03-08T03:18:35.908Z,6.05
2023-03-08T03:22:38.144Z,7.68
2023-03-08T03:26:42.095Z,11.18
2023-03-08T03:30:44.696Z,7.70
2023-03-08T03:34:49.195Z,11.98
2023-03-08T03:38:55.078Z,10.50
2023-03-08T03:42:57.978Z,12.25
2023-03-08T03:47:00.125Z,13.85
2023-03-08T03:51:10.420Z,18.63
2023-03-08T03:55:13.715Z,14.43
2023-03-08T03:59:16.287Z,17.58
2023-03-08T04:03:18.944Z,15.88
2023-03-08T04:07:21.984Z,24.40
2023-03-08T04:11:36.886Z,19.65
2023-03-08T04:15:40.182Z,25.85
2023-03-08T04:19:49.192Z,22.10
2023-03-08T04:23:52.721Z,25.27
2023-03-08T04:27:55.430Z,28.88
2023-03-08T04:32:00.314Z,26.50
2023-03-08T04:36:10.008Z,29.00
2023-03-08T04:40:13.263Z,41.97
2023-03-08T04:44:26.118Z,30.17
2023-03-08T04:48:29.002Z,39.55
2023-03-08T04:52:31.277Z,41.70
2023-03-08T04:56:33.156Z,39.88
2023-03-08T05:00:35.855Z,37.30
2023-03-08T05:04:38.779Z,37.95
2023-03-08T05:08:41.955Z,38.05
2023-03-08T05:12:44.254Z,34.53
2023-03-08T05:16:46.395Z,33.33
2023-03-08T05:20:59.715Z,41.40
2023-03-08T05:25:02.497Z,39.95
2023-03-08T05:29:06.375Z,33.45
2023-03-08T05:33:09.117Z,32.60
2023-03-08T05:37:11.322Z,35.17
2023-03-08T05:41:16.808Z,32.70
2023-03-08T05:45:23.222Z,31.10
2023-03-08T05:49:25.538Z,29.65
2023-03-08T05:53:27.787Z,30.90
2023-03-08T05:57:30.063Z,218.90
2023-03-08T06:01:32.196Z,39.78
2023-03-08T06:05:46.813Z,35.42
2023-03-08T06:09:48.978Z,28.65
2023-03-08T06:13:53.404Z,33.17
2023-03-08T06:17:58.242Z,32.35
2023-03-08T06:22:01.760Z,49.35
2023-03-08T06:26:06.209Z,38.67
2023-03-08T06:30:11.025Z,32.33
2023-03-08T06:34:13.499Z,28.45
2023-03-08T06:38:16.830Z,25.20
2023-03-08T06:42:20.997Z,27.92
2023-03-08T06:46:28.121Z,23.67
2023-03-08T06:50:30.337Z,30.75
2023-03-08T06:54:33.714Z,21.35
2023-03-08T06:58:38.768Z,18.13
2023-03-08T07:02:41.134Z,24.30
2023-03-08T07:06:43.839Z,19.85
2023-03-08T07:10:45.752Z,17.48
2023-03-08T07:14:48.061Z,19.38
2023-03-08T07:18:50.257Z,15.77
2023-03-08T07:22:52.772Z,17.55
2023-03-08T07:26:54.845Z,18.33
2023-03-08T07:30:56.969Z,19.80
2023-03-08T07:34:59.022Z,20.20
2023-03-08T07:39:01.152Z,15.70
2023-03-08T07:43:03.753Z,16.65
2023-03-08T07:47:23.497Z,31.08
2023-03-08T07:51:25.712Z,17.85
2023-03-08T07:55:28.362Z,20.63
2023-03-08T07:59:30.620Z,26.20
2023-03-08T08:03:32.768Z,20.50
2023-03-08T08:07:34.998Z,13.75
2023-03-08T08:11:37.515Z,19.63
2023-03-08T08:15:39.549Z,18.88
2023-03-08T08:19:41.779Z,26.63
2023-03-08T08:23:44.071Z,20.23
2023-03-08T08:27:46.654Z,15.65
2023-03-08T08:31:48.855Z,15.23
2023-03-08T08:35:51.158Z,14.13
2023-03-08T08:39:53.226Z,17.02
2023-03-08T08:43:59.014Z,16.00
2023-03-08T08:48:01.162Z,12.30
2023-03-08T08:52:03.564Z,13.23
2023-03-08T08:56:26.567Z,10.48
2023-03-08T09:00:33.582Z,20.05
2023-03-08T09:04:35.689Z,12.68
2023-03-08T09:08:38.147Z,14.73
2023-03-08T09:12:41.239Z,16.88
2023-03-08T09:16:43.342Z,14.55
2023-03-08T09:20:45.511Z,19.92
2023-03-08T09:24:49.305Z,14.75
2023-03-08T09:28:51.301Z,13.80
2023-03-08T09:32:53.438Z,11.02
2023-03-08T09:36:55.541Z,10.65
2023-03-08T09:41:13.348Z,14.70
2023-03-08T09:45:23.522Z,16.47
2023-03-08T09:49:30.596Z,10.10
2023-03-08T09:53:39.540Z,9.25
2023-03-08T09:57:49.882Z,18.17
2023-03-08T10:02:35.133Z,12.35
2023-03-08T10:06:47.783Z,11.68
2023-03-08T10:11:05.186Z,9.55
2023-03-08T10:15:20.325Z,11.75
2023-03-08T10:19:33.046Z,9.60
2023-03-08T10:23:36.909Z,10.85
2023-03-08T10:27:39.188Z,14.43
2023-03-08T10:31:44.329Z,11.40
2023-03-08T10:36:12.638Z,10.82
2023-03-08T10:40:20.484Z,12.75
2023-03-08T10:44:40.721Z,11.52
2023-03-08T10:48:43.071Z,14.38
2023-03-08T10:52:47.116Z,12.88
2023-03-08T10:56:59.110Z,12.50
2023-03-08T11:01:05.213Z,13.13
2023-03-08T11:05:23.038Z,14.20
2023-03-08T11:09:27.882Z,8.63
2023-03-08T11:13:33.477Z,11.85
2023-03-08T11:17:39.441Z,12.10
2023-03-08T11:22:23.834Z,10.93
2023-03-08T11:26:58.687Z,10.63
2023-03-08T11:31:19.103Z,16.45
2023-03-08T11:36:00.118Z,12.93
2023-03-08T11:40:23.908Z,8.25
2023-03-08T11:44:41.810Z,12.88
2023-03-08T11:49:01.294Z,13.82
2023-03-08T11:53:22.791Z,17.63
2023-03-08T11:57:29.027Z,13.57
2023-03-08T12:01:51.363Z,11.63
2023-03-08T12:05:57.108Z,7.13
2023-03-08T12:10:25.308Z,8.48
2023-03-08T12:14:33.029Z,17.97
2023-03-08T12:18:46.684Z,20.40
2023-03-08T12:23:06.669Z,17.08
2023-03-08T12:27:20.684Z,13.32
2023-03-08T12:31:29.935Z,10.70
2023-03-08T12:35:37.887Z,11.90
2023-03-08T12:39:40.508Z,11.67
2023-03-08T12:43:43.241Z,21.75
2023-03-08T12:48:08.778Z,12.57
2023-03-08T12:52:20.275Z,6.30
2023-03-08T12:56:31.269Z,8.82
2023-03-08T13:00:36.604Z,11.02
2023-03-08T13:04:42.159Z,10.73
2023-03-08T13:08:53.882Z,9.65
2023-03-08T13:13:06.765Z,9.63
2023-03-08T13:17:30.338Z,6.60
2023-03-08T13:21:35.632Z,6.50
2023-03-08T13:25:56.105Z,6.78
2023-03-08T13:30:02.944Z,11.75
2023-03-08T13:34:27.947Z,8.57
2023-03-08T13:38:36.058Z,11.32
2023-03-08T13:42:52.290Z,11.73
2023-03-08T13:46:56.883Z,8.95
2023-03-08T13:50:59.661Z,8.10
2023-03-08T13:55:06.131Z,8.90
2023-03-08T13:59:18.757Z,12.13
2023-03-08T14:03:20.976Z,10.10
2023-03-08T14:07:26.140Z,10.88
2023-03-08T14:11:30.995Z,16.92
2023-03-08T14:15:37.779Z,15.27
2023-03-08T14:19:40.541Z,43.35
2023-03-08T14:23:47.937Z,11.27
2023-03-08T14:27:50.340Z,10.65
2023-03-08T14:31:54.197Z,11.98
2023-03-08T14:36:00.018Z,9.27
2023-03-08T14:40:19.354Z,7.20
2023-03-08T14:48:37.097Z,8.35
2023-03-08T14:52:46.645Z,17.35
2023-03-08T14:56:50.083Z,8.80
2023-03-08T15:00:57.186Z,13.90
2023-03-08T15:05:00.151Z,15.30
2023-03-08T15:09:03.962Z,12.82
2023-03-08T15:13:21.218Z,13.27
2023-03-08T15:17:24.103Z,13.77
2023-03-08T15:21:29.306Z,14.77
2023-03-08T15:25:35.220Z,10.00
2023-03-08T15:29:38.376Z,13.15
2023-03-08T15:33:40.419Z,20.90
2023-03-08T15:37:43.862Z,17.42
2023-03-08T15:41:47.231Z,15.57
2023-03-08T15:45:49.324Z,13.90
2023-03-08T15:49:51.543Z,16.35
2023-03-08T15:53:53.559Z,12.00
2023-03-08T15:57:56.106Z,12.00
2023-03-08T16:01:58.224Z,11.48
2023-03-08T16:06:01.333Z,12.77
2023-03-08T16:10:05.369Z,22.38
2023-03-08T16:14:07.688Z,12.25
2023-03-08T16:18:09.907Z,15.55
2023-03-08T16:22:12.079Z,19.08
2023-03-08T16:26:17.527Z,17.10
2023-03-08T16:30:20.089Z,19.20
2023-03-08T16:34:22.186Z,15.13
2023-03-08T16:38:24.477Z,12.48
2023-03-08T16:42:26.436Z,22.85
2023-03-08T16:46:29.207Z,16.75
2023-03-08T16:50:31.220Z,27.85
2023-03-08T16:54:33.482Z,18.40
2023-03-08T16:58:35.472Z,17.50
2023-03-08T17:02:37.681Z,27.23
2023-03-08T17:06:39.915Z,21.20
2023-03-08T17:10:44.132Z,15.32
2023-03-08T17:14:46.305Z,15.00
2023-03-08T17:18:49.426Z,13.77
2023-03-08T17:22:51.384Z,18.85
2023-03-08T17:26:53.727Z,25.35
2023-03-08T17:30:55.851Z,18.98
2023-03-08T17:34:58.245Z,21.92
2023-03-08T17:39:00.599Z,22.10
2023-03-08T17:43:02.929Z,20.75
2023-03-08T17:47:05.085Z,24.58
2023-03-08T17:51:09.946Z,25.08
2023-03-08T17:55:12.541Z,20.23
2023-03-08T17:59:16.724Z,22.65
2023-03-08T18:03:19.211Z,28.40
2023-03-08T18:07:21.611Z,30.90
2023-03-08T18:11:24.150Z,39.55
2023-03-08T18:15:26.708Z,36.78
2023-03-08T18:19:28.980Z,25.90
2023-03-08T18:23:31.800Z,29.60
2023-03-08T18:27:33.728Z,29.83
2023-03-08T18:31:37.305Z,24.38
2023-03-08T18:35:39.435Z,39.08
2023-03-08T18:39:41.773Z,40.13
2023-03-08T18:43:44.099Z,27.77
2023-03-08T18:47:50.079Z,27.85
2023-03-08T18:51:52.318Z,25.60
2023-03-08T18:55:56.801Z,36.75
2023-03-08T18:59:58.749Z,34.97
2023-03-08T19:04:07.004Z,32.58
2023-03-08T19:08:09.287Z,37.70
2023-03-08T19:12:12.609Z,47.22
2023-03-08T19:16:23.322Z,56.03
2023-03-08T19:20:26.574Z,128.63
2023-03-08T19:24:28.756Z,84.70
2023-03-08T19:28:30.765Z,63.58
2023-03-08T19:32:32.503Z,60.50
2023-03-08T19:36:37.831Z,55.55
2023-03-08T19:40:43.679Z,50.85
2023-03-08T19:44:50.490Z,57.85
2023-03-08T19:48:52.692Z,68.97
2023-03-08T19:52:54.636Z,73.07
2023-03-08T19:56:57.647Z,63.38
2023-03-08T20:01:08.570Z,66.40
2023-03-08T20:05:10.589Z,56.45
2023-03-08T20:09:14.794Z,58.15
2023-03-08T20:13:16.736Z,62.63
2023-03-08T20:17:18.766Z,60.83
2023-03-08T20:21:20.873Z,60.45
2023-03-08T20:25:23.130Z,72.70
2023-03-08T20:29:25.036Z,65.03
2023-03-08T20:33:27.058Z,75.38
2023-03-08T20:37:28.970Z,64.18
2023-03-08T20:41:31.110Z,61.08
2023-03-08T20:45:33.147Z,63.90
2023-03-08T20:49:35.178Z,71.25
2023-03-08T20:53:37.447Z,66.55
2023-03-08T20:57:39.501Z,66.55
2023-03-08T21:01:43.113Z,152.88
2023-03-08T21:05:45.257Z,93.93
2023-03-08T21:09:47.240Z,62.55
2023-03-08T21:13:50.659Z,55.33
2023-03-08T21:17:52.712Z,132.80
2023-03-08T21:21:54.805Z,76.20
2023-03-08T21:26:00.101Z,63.75
2023-03-08T21:30:03.200Z,103.40
2023-03-08T21:34:06.427Z,74.20
2023-03-08T21:38:09.155Z,61.05
2023-03-08T21:42:10.887Z,50.88
2023-03-08T21:46:13.070Z,51.80
2023-03-08T21:50:15.243Z,49.10
2023-03-08T21:54:17.589Z,56.40
2023-03-08T21:58:19.675Z,57.00
2023-03-08T22:02:21.812Z,53.25
2023-03-08T22:06:24.254Z,58.40
2023-03-08T22:10:26.280Z,52.55
2023-03-08T22:14:28.782Z,50.83
2023-03-08T22:18:32.285Z,57.33
2023-03-08T22:22:34.277Z,49.08
2023-03-08T22:26:36.505Z,47.30
2023-03-08T22:30:41.245Z,57.80
2023-03-08T22:34:43.233Z,53.13
2023-03-08T22:38:45.404Z,49.78
2023-03-08T22:42:47.526Z,68.32
2023-03-08T22:46:49.482Z,47.40
2023-03-08T22:51:04.738Z,52.20
2023-03-08T22:55:12.376Z,48.75
2023-03-08T22:59:15.112Z,55.30
2023-03-08T23:03:17.223Z,55.58
2023-03-08T23:07:19.242Z,52.95
2023-03-08T23:11:21.554Z,68.63
2023-03-08T23:15:23.823Z,59.30
2023-03-08T23:19:26.420Z,56.65
2023-03-08T23:23:28.567Z,59.90
2023-03-08T23:27:31.182Z,60.65
2023-03-08T23:31:35.594Z,57.35
2023-03-08T23:35:37.779Z,56.15
2023-03-08T23:39:40.100Z,59.80
2023-03-08T23:43:42.887Z,61.08
2023-03-08T23:47:44.955Z,56.72
2023-03-08T23:51:47.058Z,56.67
2023-03-08T23:55:49.076Z,51.75
2023-03-08T23:59:51.229Z,53.33
